createdAt,value
2019-03-06T00:00:43.162Z,9.57
2019-03-06T00:03:10.317Z,9.13
2019-03-06T00:05:38.073Z,9.13
2019-03-06T00:08:05.256Z,12.70
2019-03-06T00:10:32.461Z,10.97
2019-03-06T00:12:59.636Z,10.20
2019-03-06T00:15:26.795Z,9.10
2019-03-06T00:17:53.990Z,9.70
2019-03-06T00:20:21.151Z,8.43
2019-03-06T00:22:48.318Z,10.23
2019-03-06T00:25:15.514Z,14.53
2019-03-06T00:27:42.703Z,11.50
2019-03-06T00:30:13.724Z,9.63
2019-03-06T00:32:41.655Z,8.50
2019-03-06T00:35:28.162Z,9.33
2019-03-06T00:37:55.342Z,8.67
2019-03-06T00:40:40.315Z,11.10
2019-03-06T00:43:07.514Z,12.60
2019-03-06T00:45:34.681Z,9.87
2019-03-06T00:48:01.873Z,11.80
2019-03-06T00:50:29.048Z,7.97
2019-03-06T00:52:56.227Z,11.63
2019-03-06T00:55:23.408Z,10.27
2019-03-06T00:57:50.583Z,12.10
2019-03-06T01:00:20.069Z,10.83
2019-03-06T01:02:47.257Z,6.93
2019-03-06T01:05:14.445Z,9.67
2019-03-06T01:07:41.891Z,10.20
2019-03-06T01:10:10.755Z,14.27
2019-03-06T01:12:37.918Z,10.03
2019-03-06T01:15:06.465Z,12.53
2019-03-06T01:17:33.657Z,9.33
2019-03-06T01:20:01.093Z,9.57
2019-03-06T01:22:28.282Z,8.60
2019-03-06T01:24:56.031Z,9.53
2019-03-06T01:27:23.289Z,8.83
2019-03-06T01:29:50.485Z,14.00
2019-03-06T01:32:17.665Z,16.40
2019-03-06T01:34:53.161Z,8.17
2019-03-06T01:37:21.990Z,11.70
2019-03-06T01:40:05.383Z,9.63
2019-03-06T01:42:36.917Z,10.00
2019-03-06T01:45:04.729Z,10.37
2019-03-06T01:47:31.916Z,11.53
2019-03-06T01:49:59.110Z,11.80
2019-03-06T01:52:26.267Z,9.20
2019-03-06T01:54:54.005Z,11.27
2019-03-06T01:57:21.235Z,11.67
2019-03-06T01:59:48.420Z,11.17
2019-03-06T02:02:15.610Z,9.47
2019-03-06T02:04:42.865Z,10.00
2019-03-06T02:07:10.933Z,12.90
2019-03-06T02:09:38.900Z,14.70
2019-03-06T02:12:06.075Z,12.70
2019-03-06T02:14:33.260Z,11.03
2019-03-06T02:17:00.449Z,13.30
2019-03-06T02:19:27.630Z,11.67
2019-03-06T02:21:55.378Z,12.13
2019-03-06T02:24:22.563Z,14.27
2019-03-06T02:26:49.738Z,12.43
2019-03-06T02:29:16.917Z,10.77
2019-03-06T02:31:44.094Z,14.13
2019-03-06T02:34:11.342Z,11.97
2019-03-06T02:36:38.598Z,12.60
2019-03-06T02:39:06.242Z,16.47
2019-03-06T02:41:33.416Z,13.37
2019-03-06T02:44:00.594Z,13.73
2019-03-06T02:46:27.774Z,13.57
2019-03-06T02:48:54.965Z,13.33
2019-03-06T02:51:22.227Z,13.27
2019-03-06T02:53:49.772Z,11.77
2019-03-06T02:56:16.972Z,16.33
2019-03-06T02:59:00.918Z,15.80
2019-03-06T03:01:44.658Z,16.37
2019-03-06T03:04:13.895Z,12.47
2019-03-06T03:06:45.406Z,17.50
2019-03-06T03:09:14.174Z,15.10
2019-03-06T03:11:41.428Z,14.00
2019-03-06T03:14:08.799Z,12.20
2019-03-06T03:16:35.972Z,15.90
2019-03-06T03:19:03.150Z,11.50
2019-03-06T03:21:30.346Z,15.30
2019-03-06T03:23:57.830Z,12.50
2019-03-06T03:26:25.091Z,18.67
2019-03-06T03:28:52.636Z,14.47
2019-03-06T03:31:19.810Z,13.63
2019-03-06T03:33:47.089Z,13.10
2019-03-06T03:36:14.379Z,16.17
2019-03-06T03:38:41.607Z,13.90
2019-03-06T03:41:08.881Z,16.17
2019-03-06T03:43:36.622Z,15.30
2019-03-06T03:46:03.880Z,17.13
2019-03-06T03:48:31.121Z,14.20
2019-03-06T03:50:58.307Z,15.70
2019-03-06T03:53:25.575Z,18.57
2019-03-06T03:55:52.823Z,13.60
2019-03-06T03:58:20.407Z,13.43
2019-03-06T04:00:47.650Z,11.97
2019-03-06T04:03:14.900Z,14.97
2019-03-06T04:05:42.760Z,11.80
2019-03-06T04:08:09.956Z,13.83
2019-03-06T04:10:37.192Z,12.97
2019-03-06T04:13:04.741Z,13.37
2019-03-06T04:15:31.933Z,14.17
2019-03-06T04:17:59.170Z,20.00
2019-03-06T04:20:26.356Z,15.90
2019-03-06T04:22:53.530Z,13.03
2019-03-06T04:25:20.702Z,13.03
2019-03-06T04:27:48.375Z,14.77
2019-03-06T04:30:16.697Z,14.13
2019-03-06T04:32:44.083Z,14.63
2019-03-06T04:35:11.324Z,15.97
2019-03-06T04:37:38.503Z,16.23
2019-03-06T04:40:08.173Z,15.93
2019-03-06T04:42:35.395Z,15.67
2019-03-06T04:45:02.557Z,14.97
2019-03-06T04:47:29.732Z,12.23
2019-03-06T04:49:56.946Z,16.63
2019-03-06T04:52:24.124Z,14.10
2019-03-06T04:54:52.071Z,13.93
2019-03-06T04:57:19.915Z,15.67
2019-03-06T04:59:47.689Z,19.43
2019-03-06T05:02:14.867Z,14.93
2019-03-06T05:04:42.520Z,14.93
2019-03-06T05:07:09.733Z,13.37
2019-03-06T05:09:37.589Z,15.93
2019-03-06T05:12:04.768Z,15.93
2019-03-06T05:14:32.536Z,13.53
2019-03-06T05:17:07.204Z,13.27
2019-03-06T05:19:34.374Z,14.23
2019-03-06T05:22:02.218Z,16.00
2019-03-06T05:24:29.395Z,17.43
2019-03-06T05:26:57.205Z,16.07
2019-03-06T05:29:24.395Z,15.33
2019-03-06T05:32:09.984Z,17.17
2019-03-06T05:34:37.207Z,17.37
2019-03-06T05:37:06.018Z,14.50
2019-03-06T05:39:33.210Z,14.67
2019-03-06T05:42:00.405Z,19.53
2019-03-06T05:44:27.582Z,21.10
2019-03-06T05:46:55.658Z,20.57
2019-03-06T05:49:22.834Z,21.73
2019-03-06T05:51:50.009Z,20.33
2019-03-06T05:54:17.197Z,20.73
2019-03-06T05:56:44.394Z,18.30
2019-03-06T05:59:11.590Z,19.77
2019-03-06T06:01:38.818Z,20.57
2019-03-06T06:04:06.009Z,20.63
2019-03-06T06:06:33.701Z,16.73
2019-03-06T06:09:00.889Z,18.70
2019-03-06T06:11:28.390Z,21.40
2019-03-06T06:13:56.049Z,15.00
2019-03-06T06:16:23.314Z,19.27
2019-03-06T06:18:50.819Z,19.40
2019-03-06T06:21:19.640Z,19.97
2019-03-06T06:23:57.241Z,16.93
2019-03-06T06:26:24.838Z,16.70
2019-03-06T06:28:52.011Z,20.50
2019-03-06T06:31:19.186Z,15.60
2019-03-06T06:33:46.364Z,14.40
2019-03-06T06:36:13.574Z,14.17
2019-03-06T06:38:40.762Z,20.50
2019-03-06T06:41:07.926Z,18.87
2019-03-06T06:43:35.298Z,17.70
2019-03-06T06:46:02.475Z,19.27
2019-03-06T06:48:29.710Z,16.07
2019-03-06T06:51:01.461Z,18.53
2019-03-06T06:53:34.755Z,15.87
2019-03-06T06:56:03.542Z,18.67
2019-03-06T06:58:32.357Z,16.10
2019-03-06T07:01:08.573Z,17.63
2019-03-06T07:03:56.987Z,17.03
2019-03-06T07:06:31.546Z,16.13
2019-03-06T07:09:12.518Z,14.83
2019-03-06T07:11:44.242Z,16.97
2019-03-06T07:14:16.083Z,19.63
2019-03-06T07:16:44.908Z,20.50
2019-03-06T07:19:16.622Z,14.90
2019-03-06T07:21:48.254Z,19.90
2019-03-06T07:24:17.064Z,15.90
2019-03-06T07:26:46.338Z,16.40
2019-03-06T07:29:31.347Z,17.10
2019-03-06T07:32:08.885Z,13.33
2019-03-06T07:34:40.652Z,17.50
2019-03-06T07:37:11.915Z,18.80
2019-03-06T07:39:40.715Z,20.93
2019-03-06T07:42:10.133Z,13.27
2019-03-06T07:44:41.738Z,14.30
2019-03-06T07:47:10.574Z,12.37
2019-03-06T07:49:45.028Z,13.83
2019-03-06T07:52:20.989Z,13.90
2019-03-06T07:54:49.813Z,12.57
2019-03-06T07:57:18.637Z,12.57
2019-03-06T07:59:45.904Z,11.80
2019-03-06T08:02:20.393Z,17.73
2019-03-06T08:04:53.980Z,12.40
2019-03-06T08:07:21.230Z,10.23
2019-03-06T08:09:49.466Z,14.77
2019-03-06T08:12:34.598Z,13.00
2019-03-06T08:15:12.502Z,12.37
2019-03-06T08:17:44.437Z,12.47
2019-03-06T08:20:13.277Z,12.53
2019-03-06T08:22:50.894Z,12.00
2019-03-06T08:25:35.632Z,10.87
2019-03-06T08:28:02.959Z,10.13
2019-03-06T08:30:31.751Z,12.40
2019-03-06T08:32:58.948Z,14.10
2019-03-06T08:35:26.226Z,11.23
2019-03-06T08:37:53.587Z,13.70
2019-03-06T08:40:20.839Z,9.77
2019-03-06T08:42:48.488Z,12.23
2019-03-06T08:45:17.372Z,12.07
2019-03-06T08:47:46.226Z,11.47
2019-03-06T08:50:23.901Z,11.60
2019-03-06T08:52:52.796Z,12.07
2019-03-06T08:55:37.552Z,9.83
2019-03-06T08:58:06.408Z,9.77
2019-03-06T09:00:43.901Z,10.60
2019-03-06T09:03:27.468Z,12.17
2019-03-06T09:06:12.232Z,9.97
2019-03-06T09:08:57.236Z,11.03
2019-03-06T09:11:42.157Z,11.33
2019-03-06T09:14:11.007Z,9.23
2019-03-06T09:16:45.380Z,10.23
2019-03-06T09:19:14.186Z,13.20
2019-03-06T09:21:54.685Z,13.73
2019-03-06T09:24:29.415Z,10.23
2019-03-06T09:26:59.649Z,10.40
2019-03-06T09:29:31.297Z,13.47
2019-03-06T09:32:08.943Z,11.17
2019-03-06T09:34:40.447Z,8.40
2019-03-06T09:37:18.131Z,11.40
2019-03-06T09:39:52.602Z,10.40
2019-03-06T09:42:37.750Z,8.70
2019-03-06T09:45:07.658Z,9.47
2019-03-06T09:47:39.182Z,8.80
2019-03-06T09:50:12.742Z,12.67
2019-03-06T09:52:50.418Z,8.47
2019-03-06T09:55:37.184Z,7.40
2019-03-06T09:58:08.659Z,7.87
2019-03-06T10:00:53.718Z,9.93
2019-03-06T10:03:38.721Z,9.83
2019-03-06T10:06:07.623Z,7.60
2019-03-06T10:08:52.705Z,8.13
2019-03-06T10:11:21.530Z,9.93
2019-03-06T10:14:05.414Z,6.20
2019-03-06T10:16:36.870Z,8.77
2019-03-06T10:19:05.975Z,6.23
2019-03-06T10:21:33.328Z,6.80
2019-03-06T10:24:00.530Z,6.40
2019-03-06T10:26:28.914Z,8.07
2019-03-06T10:28:56.238Z,7.90
2019-03-06T10:31:23.502Z,7.07
2019-03-06T10:33:50.763Z,8.97
2019-03-06T10:36:18.027Z,11.03
2019-03-06T10:38:45.926Z,9.57
2019-03-06T10:41:14.210Z,6.67
2019-03-06T10:43:48.887Z,9.97
2019-03-06T10:46:10.354Z,7.37
2019-03-06T10:48:37.602Z,8.27
2019-03-06T10:51:04.965Z,11.20
2019-03-06T10:53:41.109Z,12.23
2019-03-06T10:56:01.117Z,10.00
2019-03-06T10:58:28.693Z,9.90
2019-03-06T11:00:55.928Z,8.17
2019-03-06T11:03:24.895Z,6.87
2019-03-06T11:05:52.132Z,5.37
2019-03-06T11:08:19.409Z,7.63
2019-03-06T11:10:46.652Z,9.97
2019-03-06T11:13:13.947Z,13.07
2019-03-06T11:15:41.682Z,6.80
2019-03-06T11:18:08.921Z,9.13
2019-03-06T11:20:36.619Z,5.07
2019-03-06T11:23:05.477Z,5.53
2019-03-06T11:25:32.714Z,9.67
2019-03-06T11:27:59.920Z,5.60
2019-03-06T11:30:28.819Z,7.83
2019-03-06T11:32:56.049Z,7.70
2019-03-06T11:35:25.638Z,5.73
2019-03-06T11:37:52.804Z,6.77
2019-03-06T11:40:20.035Z,4.60
2019-03-06T11:42:48.009Z,8.47
2019-03-06T11:45:16.891Z,6.33
2019-03-06T11:47:44.166Z,7.83
2019-03-06T11:50:12.291Z,9.50
2019-03-06T11:52:39.758Z,6.53
2019-03-06T11:55:08.589Z,6.13
2019-03-06T11:57:36.038Z,5.00
2019-03-06T12:00:05.201Z,6.00
2019-03-06T12:02:32.445Z,4.77
2019-03-06T12:04:59.709Z,4.13
2019-03-06T12:07:26.955Z,5.50
2019-03-06T12:09:54.250Z,4.33
2019-03-06T12:12:21.510Z,7.23
2019-03-06T12:14:48.763Z,6.10
2019-03-06T12:17:16.112Z,5.20
2019-03-06T12:19:43.383Z,6.10
2019-03-06T12:22:10.663Z,5.30
2019-03-06T12:24:37.917Z,5.60
2019-03-06T12:27:05.191Z,7.73
2019-03-06T12:29:32.443Z,5.10
2019-03-06T12:31:59.691Z,4.73
2019-03-06T12:34:27.878Z,4.57
2019-03-06T12:36:55.165Z,3.67
2019-03-06T12:39:22.396Z,4.63
2019-03-06T12:41:49.696Z,6.23
2019-03-06T12:44:16.910Z,5.20
2019-03-06T12:46:44.269Z,8.70
2019-03-06T12:49:11.713Z,5.43
2019-03-06T12:51:38.967Z,3.90
2019-03-06T12:54:06.218Z,7.13
2019-03-06T12:56:33.480Z,6.97
2019-03-06T12:59:00.663Z,4.23
2019-03-06T13:01:27.859Z,4.57
2019-03-06T13:03:55.096Z,6.80
2019-03-06T13:06:24.690Z,6.83
2019-03-06T13:08:51.209Z,3.07
2019-03-06T13:11:18.451Z,3.50
2019-03-06T13:13:45.703Z,2.90
2019-03-06T13:16:12.934Z,4.87
2019-03-06T13:18:40.116Z,3.83
2019-03-06T13:21:07.744Z,3.17
2019-03-06T13:23:35.297Z,4.83
2019-03-06T13:26:10.027Z,6.60
2019-03-06T13:28:31.504Z,3.90
2019-03-06T13:30:58.742Z,2.47
2019-03-06T13:33:33.268Z,24.07
2019-03-06T13:36:00.462Z,3.23
2019-03-06T13:38:27.907Z,3.63
2019-03-06T13:40:55.201Z,4.80
2019-03-06T13:43:22.440Z,5.03
2019-03-06T13:45:49.692Z,3.23
2019-03-06T13:48:16.890Z,3.23
2019-03-06T13:50:44.225Z,3.87
2019-03-06T13:53:19.885Z,2.50
2019-03-06T13:55:40.364Z,4.90
2019-03-06T13:58:07.629Z,6.00
2019-03-06T14:00:34.879Z,3.73
2019-03-06T14:03:02.668Z,3.13
2019-03-06T14:05:29.857Z,7.77
2019-03-06T14:07:57.127Z,2.53
2019-03-06T14:10:24.662Z,5.10
2019-03-06T14:12:52.123Z,4.40
2019-03-06T14:15:19.438Z,3.63
2019-03-06T14:17:46.694Z,2.80
2019-03-06T14:20:15.887Z,2.77
2019-03-06T14:22:43.120Z,4.07
2019-03-06T14:25:10.646Z,5.50
2019-03-06T14:27:37.891Z,4.93
2019-03-06T14:30:09.593Z,3.80
2019-03-06T14:32:38.598Z,3.03
2019-03-06T14:35:06.652Z,3.97
2019-03-06T14:37:33.912Z,4.63
2019-03-06T14:40:09.300Z,3.83
2019-03-06T14:42:30.571Z,2.20
2019-03-06T14:44:57.926Z,4.73
2019-03-06T14:47:25.178Z,5.30
2019-03-06T14:49:52.406Z,4.27
2019-03-06T14:52:19.577Z,3.97
2019-03-06T14:54:47.428Z,4.07
2019-03-06T14:57:14.666Z,5.33
2019-03-06T14:59:41.869Z,4.60
2019-03-06T15:02:09.218Z,4.20
2019-03-06T15:04:36.469Z,5.03
2019-03-06T15:07:03.661Z,4.43
2019-03-06T15:09:30.902Z,4.80
2019-03-06T15:11:58.065Z,5.03
2019-03-06T15:14:25.314Z,8.43
2019-03-06T15:16:52.565Z,3.60
2019-03-06T15:19:20.318Z,11.80
2019-03-06T15:21:47.574Z,3.20
2019-03-06T15:24:14.829Z,5.97
2019-03-06T15:26:42.070Z,5.60
2019-03-06T15:29:12.203Z,4.73
2019-03-06T15:31:39.911Z,5.87
2019-03-06T15:34:07.246Z,8.57
2019-03-06T15:36:34.474Z,4.83
2019-03-06T15:39:01.721Z,5.77
2019-03-06T15:41:28.962Z,4.77
2019-03-06T15:43:56.164Z,4.70
2019-03-06T15:46:24.003Z,8.83
2019-03-06T15:48:51.251Z,9.97
2019-03-06T15:51:18.906Z,5.53
2019-03-06T15:53:46.088Z,10.23
2019-03-06T15:56:14.197Z,5.63
2019-03-06T15:58:42.009Z,6.43
2019-03-06T16:01:09.250Z,3.77
2019-03-06T16:03:36.514Z,6.97
2019-03-06T16:06:04.770Z,11.67
2019-03-06T16:08:31.934Z,8.23
2019-03-06T16:10:59.124Z,7.93
2019-03-06T16:13:26.309Z,7.10
2019-03-06T16:15:53.507Z,8.33
2019-03-06T16:18:20.679Z,9.90
2019-03-06T16:20:47.914Z,4.40
2019-03-06T16:23:15.157Z,6.10
2019-03-06T16:25:42.399Z,5.07
2019-03-06T16:28:09.670Z,10.07
2019-03-06T16:30:36.936Z,10.27
2019-03-06T16:33:04.863Z,6.20
2019-03-06T16:35:32.115Z,6.57
2019-03-06T16:37:59.289Z,9.67
2019-03-06T16:40:27.510Z,6.77
2019-03-06T16:42:54.696Z,8.43
2019-03-06T16:45:25.610Z,6.83
2019-03-06T16:47:52.881Z,8.70
2019-03-06T16:50:20.487Z,10.77
2019-03-06T16:52:47.678Z,9.40
2019-03-06T16:55:15.931Z,7.80
2019-03-06T16:57:43.103Z,10.67
2019-03-06T17:00:17.539Z,8.83
2019-03-06T17:02:44.803Z,10.57
2019-03-06T17:05:12.066Z,10.43
2019-03-06T17:07:39.299Z,8.90
2019-03-06T17:10:06.470Z,12.20
2019-03-06T17:12:33.726Z,8.73
2019-03-06T17:15:00.970Z,8.70
2019-03-06T17:17:28.138Z,8.00
2019-03-06T17:19:55.335Z,11.03
2019-03-06T17:22:22.574Z,9.07
2019-03-06T17:24:49.741Z,9.20
2019-03-06T17:27:16.923Z,14.27
2019-03-06T17:29:44.231Z,7.40
2019-03-06T17:32:11.410Z,7.57
2019-03-06T17:34:38.626Z,10.53
2019-03-06T17:37:05.885Z,7.93
2019-03-06T17:39:33.124Z,8.90
2019-03-06T17:42:00.806Z,9.93
2019-03-06T17:44:28.038Z,8.27
2019-03-06T17:46:55.239Z,14.00
2019-03-06T17:49:22.486Z,13.10
2019-03-06T17:51:49.722Z,10.17
2019-03-06T17:54:16.925Z,13.20
2019-03-06T17:56:44.216Z,8.93
2019-03-06T17:59:11.461Z,9.43
2019-03-06T18:01:38.708Z,10.43
2019-03-06T18:04:07.601Z,11.37
2019-03-06T18:06:34.867Z,8.73
2019-03-06T18:09:02.143Z,14.17
2019-03-06T18:11:29.390Z,8.63
2019-03-06T18:13:56.982Z,9.17
2019-03-06T18:16:24.177Z,12.77
2019-03-06T18:18:51.616Z,10.83
2019-03-06T18:21:18.833Z,8.80
2019-03-06T18:23:46.117Z,10.40
2019-03-06T18:26:13.370Z,11.47
2019-03-06T18:28:40.634Z,8.13
2019-03-06T18:31:07.882Z,9.43
2019-03-06T18:33:35.133Z,9.33
2019-03-06T18:36:02.391Z,7.10
2019-03-06T18:38:30.767Z,8.83
2019-03-06T18:40:58.038Z,9.83
2019-03-06T18:43:25.288Z,7.57
2019-03-06T18:45:52.461Z,11.27
2019-03-06T18:48:19.728Z,8.37
2019-03-06T18:50:47.007Z,8.50
2019-03-06T18:53:14.239Z,8.83
2019-03-06T18:55:41.697Z,6.17
2019-03-06T18:58:08.968Z,9.77
2019-03-06T19:00:36.294Z,8.30
2019-03-06T19:03:03.558Z,8.13
2019-03-06T19:05:30.794Z,6.87
2019-03-06T19:07:58.083Z,7.37
2019-03-06T19:10:25.325Z,7.40
2019-03-06T19:12:52.800Z,6.30
2019-03-06T19:15:24.579Z,6.07
2019-03-06T19:17:51.819Z,7.13
2019-03-06T19:20:19.347Z,4.63
2019-03-06T19:22:47.544Z,7.70
2019-03-06T19:25:15.829Z,7.43
2019-03-06T19:27:43.004Z,4.80
2019-03-06T19:30:14.258Z,5.47
2019-03-06T19:32:41.421Z,8.23
2019-03-06T19:35:08.703Z,6.53
2019-03-06T19:37:35.949Z,5.50
2019-03-06T19:40:03.495Z,8.73
2019-03-06T19:42:30.744Z,5.77
2019-03-06T19:44:58.675Z,5.93
2019-03-06T19:47:25.931Z,6.13
2019-03-06T19:49:53.108Z,5.07
2019-03-06T19:52:20.382Z,5.10
2019-03-06T19:54:48.931Z,9.37
2019-03-06T19:57:16.186Z,6.50
2019-03-06T19:59:43.459Z,6.47
2019-03-06T20:02:10.691Z,6.63
2019-03-06T20:04:37.970Z,11.13
2019-03-06T20:07:05.299Z,8.20
2019-03-06T20:09:32.575Z,7.43
2019-03-06T20:11:59.864Z,7.53
2019-03-06T20:14:27.204Z,6.97
2019-03-06T20:16:54.527Z,7.10
2019-03-06T20:19:22.312Z,5.63
2019-03-06T20:21:49.687Z,5.13
2019-03-06T20:24:16.957Z,5.20
2019-03-06T20:26:44.206Z,7.47
2019-03-06T20:29:11.468Z,5.83
2019-03-06T20:31:38.654Z,6.50
2019-03-06T20:34:05.908Z,6.77
2019-03-06T20:36:33.542Z,5.10
2019-03-06T20:39:00.779Z,6.93
2019-03-06T20:41:28.060Z,8.93
2019-03-06T20:43:55.307Z,6.87
2019-03-06T20:46:22.549Z,7.00
2019-03-06T20:48:49.820Z,9.47
2019-03-06T20:51:17.080Z,6.70
2019-03-06T20:53:44.376Z,5.47
2019-03-06T20:56:11.622Z,6.57
2019-03-06T20:58:38.874Z,6.53
2019-03-06T21:01:07.044Z,7.13
2019-03-06T21:03:34.274Z,6.60
2019-03-06T21:06:01.465Z,6.17
2019-03-06T21:08:28.722Z,6.83
2019-03-06T21:10:55.986Z,4.80
2019-03-06T21:13:23.691Z,5.43
2019-03-06T21:15:50.940Z,4.80
2019-03-06T21:18:18.134Z,6.00
2019-03-06T21:20:45.327Z,7.40
2019-03-06T21:23:12.900Z,5.90
2019-03-06T21:25:40.166Z,6.03
2019-03-06T21:28:07.510Z,7.90
2019-03-06T21:30:36.910Z,8.53
2019-03-06T21:33:04.197Z,6.17
2019-03-06T21:35:31.467Z,6.87
2019-03-06T21:37:58.688Z,5.03
2019-03-06T21:40:26.557Z,7.13
2019-03-06T21:42:53.804Z,5.00
2019-03-06T21:45:21.067Z,5.93
2019-03-06T21:47:48.303Z,10.33
2019-03-06T21:50:15.957Z,13.17
2019-03-06T21:52:43.199Z,10.73
2019-03-06T21:55:12.095Z,5.20
2019-03-06T21:57:39.328Z,5.23
2019-03-06T22:00:08.801Z,5.40
2019-03-06T22:02:36.059Z,7.50
2019-03-06T22:05:03.314Z,7.80
2019-03-06T22:07:30.561Z,6.33
2019-03-06T22:09:57.825Z,5.17
2019-03-06T22:12:25.011Z,8.40
2019-03-06T22:14:52.263Z,7.57
2019-03-06T22:17:19.489Z,6.47
2019-03-06T22:19:46.672Z,6.03
2019-03-06T22:22:13.924Z,5.23
2019-03-06T22:24:41.159Z,5.10
2019-03-06T22:27:08.340Z,8.03
2019-03-06T22:29:35.514Z,6.17
2019-03-06T22:32:02.688Z,5.23
2019-03-06T22:34:29.930Z,6.83
2019-03-06T22:36:57.112Z,7.47
2019-03-06T22:39:24.960Z,10.37
2019-03-06T22:41:52.226Z,6.20
2019-03-06T22:44:19.395Z,7.90
2019-03-06T22:46:47.007Z,5.57
2019-03-06T22:49:14.256Z,5.87
2019-03-06T22:51:42.117Z,5.37
2019-03-06T22:54:09.365Z,4.83
2019-03-06T22:56:37.073Z,5.53
2019-03-06T22:59:04.332Z,8.20
2019-03-06T23:01:31.498Z,6.90
2019-03-06T23:03:59.422Z,8.47
2019-03-06T23:06:27.278Z,6.07
2019-03-06T23:08:54.989Z,7.73
2019-03-06T23:11:22.323Z,7.40
2019-03-06T23:13:49.562Z,7.33
2019-03-06T23:16:16.759Z,7.70
2019-03-06T23:18:44.021Z,7.97
2019-03-06T23:21:11.194Z,9.23
2019-03-06T23:23:39.034Z,6.73
2019-03-06T23:26:06.218Z,4.77
2019-03-06T23:28:33.465Z,5.37
2019-03-06T23:31:00.715Z,6.33
2019-03-06T23:33:27.961Z,7.63
2019-03-06T23:35:55.207Z,6.30
2019-03-06T23:38:23.002Z,7.30
2019-03-06T23:40:50.468Z,9.23
2019-03-06T23:43:17.713Z,6.47
2019-03-06T23:45:44.949Z,6.90
2019-03-06T23:48:12.155Z,10.37
2019-03-06T23:50:39.406Z,7.67
2019-03-06T23:53:08.046Z,6.40
2019-03-06T23:55:35.994Z,6.60
2019-03-06T23:58:03.262Z,5.37
